Time;durP1;ratioP1;P1;durP2;ratioP2;P2;SDS_P1;SDS_P2;PMS_P1;PMS_P2;Temp;Humidity;BMP_temperature;BMP_pressure;BME280_temperature;BME280_humidity;BME280_pressure;Samples;Min_cycle;Max_cycle;Signal;HPM_P1;HPM_P2
2023/03/09 05:30:33;;;;;;;;;1.00;1.00;;;;;11.85;77.39;99500.19;5134130;27;45513;-77
2023/03/09 05:32:58;;;;;;;;;3.25;1.00;;;;;11.57;77.91;99476.25;5099085;27;45522;-78
2023/03/09 05:35:24;;;;;;;;;3.00;2.00;;;;;11.69;78.30;99495.00;5118457;27;46557;-77
2023/03/09 05:37:49;;;;;;;;;3.50;1.00;;;;;11.73;78.10;99495.66;5118153;27;45402;-77
2023/03/09 05:40:17;;;;;;;;;4.50;1.50;;;;;11.72;78.58;99500.19;5118636;27;45398;-78
2023/03/09 05:42:42;;;;;;;;;2.50;2.00;;;;;11.76;78.35;99492.78;5117966;27;45368;-76
2023/03/09 05:45:09;;;;;;;;;2.25;0.75;;;;;11.79;77.98;99494.41;5118228;27;46282;-76
2023/03/09 05:47:35;;;;;;;;;2.50;1.50;;;;;11.72;78.65;99485.91;5118034;27;45230;-77
2023/03/09 05:50:00;;;;;;;;;2.25;0.75;;;;;11.68;78.83;99495.13;5107926;27;45545;-77
2023/03/09 05:52:25;;;;;;;;;1.00;1.00;;;;;11.71;78.03;99484.19;5097354;27;45421;-77
2023/03/09 05:54:51;;;;;;;;;2.75;1.50;;;;;11.89;78.01;99503.53;5097788;27;46915;-81
2023/03/09 05:57:16;;;;;;;;;1.75;1.00;;;;;11.83;77.84;99490.50;5102661;27;45884;-80
2023/03/09 05:59:41;;;;;;;;;1.50;1.00;;;;;11.90;78.09;99513.31;5096574;27;45439;-79
2023/03/09 06:02:07;;;;;;;;;3.50;3.50;;;;;11.79;78.02;99484.53;5096178;27;45752;-78
2023/03/09 06:04:33;;;;;;;;;2.75;2.00;;;;;11.87;78.45;99529.63;5097057;27;46517;-78
2023/03/09 06:06:59;;;;;;;;;2.00;0.75;;;;;11.60;78.05;99474.19;5096904;27;45501;-86
2023/03/09 06:09:25;;;;;;;;;2.00;2.00;;;;;11.88;78.54;99523.28;5097381;27;45508;-77
2023/03/09 06:11:50;;;;;;;;;3.75;1.00;;;;;11.92;78.26;99522.09;5091661;27;45342;-74
2023/03/09 06:14:16;;;;;;;;;1.00;1.00;;;;;11.91;78.19;99504.28;5122319;27;45338;-77
2023/03/09 06:16:41;;;;;;;;;1.00;1.00;;;;;11.97;78.04;99520.81;5102220;27;45329;-78
2023/03/09 06:19:06;;;;;;;;;3.00;1.00;;;;;11.79;78.40;99519.44;5097628;27;45306;-82
2023/03/09 06:21:32;;;;;;;;;0.00;0.00;;;;;11.89;78.38;99527.69;5096776;27;45578;-73
2023/03/09 06:23:58;;;;;;;;;2.00;2.00;;;;;11.79;78.51;99523.94;5098603;27;45425;-80
2023/03/09 06:26:24;;;;;;;;;1.25;1.25;;;;;11.87;78.27;99545.75;5096272;27;45386;-86
2023/03/09 06:28:49;;;;;;;;;2.00;1.00;;;;;11.84;78.96;99549.50;5088268;27;45495;-74
2023/03/09 06:31:16;;;;;;;;;0.00;0.00;;;;;11.80;79.15;99545.31;5123533;27;45548;-75
2023/03/09 06:33:44;;;;;;;;;0.00;0.00;;;;;11.79;79.02;99550.78;5137865;27;45386;-72
2023/03/09 06:36:12;;;;;;;;;2.75;0.25;;;;;11.85;78.91;99543.16;5137881;27;45326;-71
2023/03/09 06:38:38;;;;;;;;;1.25;0.25;;;;;11.93;78.39;99547.97;5138146;27;45351;-72
2023/03/09 06:41:04;;;;;;;;;2.00;0.00;;;;;11.87;78.57;99568.09;5136082;27;45447;-74
2023/03/09 06:43:29;;;;;;;;;2.50;2.25;;;;;11.76;78.26;99554.53;5118863;27;48143;-73
2023/03/09 06:45:54;;;;;;;;;1.00;1.00;;;;;11.92;78.57;99571.28;5119172;27;45498;-73
2023/03/09 06:48:20;;;;;;;;;1.25;1.00;;;;;11.99;78.39;99585.19;5129428;27;45238;-71
2023/03/09 06:50:46;;;;;;;;;2.00;2.00;;;;;12.02;78.02;99576.88;5132571;27;45387;-73
2023/03/09 06:53:12;;;;;;;;;2.00;0.75;;;;;11.99;77.59;99569.91;5137906;27;45958;-73
2023/03/09 06:55:39;;;;;;;;;0.50;0.50;;;;;12.03;78.17;99579.47;5137600;27;45313;-71
2023/03/09 06:58:04;;;;;;;;;1.25;1.00;;;;;12.02;77.77;99574.19;5137100;27;45386;-73
2023/03/09 07:00:30;;;;;;;;;3.50;2.00;;;;;11.99;77.75;99564.53;5136823;27;45554;-74
2023/03/09 07:02:56;;;;;;;;;2.00;0.00;;;;;12.00;78.05;99577.00;5137148;27;45356;-73
2023/03/09 07:05:21;;;;;;;;;0.25;0.25;;;;;12.01;77.80;99575.16;5114503;27;45531;-72
2023/03/09 07:07:48;;;;;;;;;6.00;2.50;;;;;12.11;77.54;99582.47;5125188;27;45505;-74
2023/03/09 07:10:14;;;;;;;;;3.00;1.75;;;;;12.12;77.46;99603.00;5116412;27;45590;-72
2023/03/09 07:12:39;;;;;;;;;3.50;2.00;;;;;12.08;77.79;99611.38;5116193;27;46546;-74
2023/03/09 07:15:06;;;;;;;;;4.75;2.50;;;;;12.14;77.76;99605.59;5116425;27;45496;-73
2023/03/09 07:17:31;;;;;;;;;4.75;2.50;;;;;12.13;77.66;99607.41;5116282;27;45526;-73
2023/03/09 07:19:57;;;;;;;;;4.00;4.00;;;;;12.19;77.07;99605.25;5116171;27;47180;-72
2023/03/09 07:22:22;;;;;;;;;5.50;1.50;;;;;12.24;77.22;99605.81;5116781;27;45655;-73
2023/03/09 07:24:48;;;;;;;;;2.50;1.25;;;;;12.28;77.21;99613.53;5116472;27;45438;-72
2023/03/09 07:27:13;;;;;;;;;6.25;2.75;;;;;12.31;76.99;99602.56;5116221;27;45369;-73
2023/03/09 07:29:40;;;;;;;;;3.00;1.25;;;;;12.25;76.78;99604.84;5115911;27;45437;-72
2023/03/09 07:32:06;;;;;;;;;3.75;1.00;;;;;12.25;76.98;99600.28;5116773;27;46976;-73
2023/03/09 07:34:32;;;;;;;;;4.00;1.00;;;;;12.25;77.25;99618.28;5115841;27;45388;-72
2023/03/09 07:36:58;;;;;;;;;2.50;2.00;;;;;12.22;76.83;99603.22;5116574;27;45307;-73
2023/03/09 07:39:23;;;;;;;;;4.25;1.50;;;;;12.41;76.55;99627.84;5116094;27;45352;-72
2023/03/09 07:41:48;;;;;;;;;6.00;2.25;;;;;12.38;76.57;99629.88;5116134;27;49933;-73
2023/03/09 07:44:13;;;;;;;;;2.75;1.50;;;;;12.19;76.63;99635.66;5130753;27;45304;-72
2023/03/09 07:46:39;;;;;;;;;3.00;1.25;;;;;12.18;77.41;99633.94;5137252;27;45454;-72
2023/03/09 07:49:04;;;;;;;;;3.50;2.00;;;;;12.24;77.15;99636.22;5136549;27;45469;-74
2023/03/09 07:51:31;;;;;;;;;9.75;2.25;;;;;12.26;77.13;99650.38;5136931;27;45383;-73
2023/03/09 07:53:57;;;;;;;;;8.50;5.00;;;;;12.28;76.98;99639.53;5136729;27;45338;-72
2023/03/09 07:56:22;;;;;;;;;4.50;1.25;;;;;12.31;76.96;99642.88;5137146;27;45521;-73
2023/03/09 07:58:52;;;;;;;;;5.25;2.50;;;;;12.33;76.86;99648.16;5136172;27;45842;-72
2023/03/09 08:01:19;;;;;;;;;9.25;2.75;;;;;12.35;76.69;99640.81;5136494;27;46439;-72
2023/03/09 08:03:45;;;;;;;;;6.00;1.00;;;;;12.39;76.74;99636.97;5136462;27;45486;-72
2023/03/09 08:06:12;;;;;;;;;1.50;0.00;;;;;12.34;76.21;99626.53;5137059;27;45384;-72
2023/03/09 08:08:38;;;;;;;;;4.75;2.50;;;;;12.38;75.96;99633.41;5136440;27;45576;-73
2023/03/09 08:11:03;;;;;;;;;8.50;2.75;;;;;12.56;75.90;99649.19;5136828;27;45895;-71
2023/03/09 08:13:30;;;;;;;;;2.50;2.50;;;;;12.53;76.12;99647.59;5136240;27;45434;-73
2023/03/09 08:16:00;;;;;;;;;4.25;3.00;;;;;12.61;75.63;99658.66;5136947;27;45356;-73
2023/03/09 08:18:25;;;;;;;;;4.75;2.75;;;;;12.67;75.95;99658.22;5136249;27;45441;-72
2023/03/09 08:20:51;;;;;;;;;4.50;2.25;;;;;12.72;74.97;99653.38;5136355;27;46707;-72
2023/03/09 08:23:17;;;;;;;;;6.25;1.25;;;;;12.71;74.92;99656.16;5135331;27;45287;-72
2023/03/09 08:25:42;;;;;;;;;2.00;1.50;;;;;12.66;75.04;99643.06;5136608;27;45263;-72
2023/03/09 08:28:07;;;;;;;;;4.00;3.00;;;;;12.40;74.88;99588.47;5135890;27;45574;-72
2023/03/09 08:30:33;;;;;;;;;4.50;3.25;;;;;12.83;74.89;99664.22;5136122;27;45500;-74
2023/03/09 08:32:58;;;;;;;;;2.00;2.00;;;;;12.85;74.72;99651.50;5136019;27;45331;-73
2023/03/09 08:35:30;;;;;;;;;3.50;3.25;;;;;12.90;74.36;99675.38;5136270;27;46058;-72
2023/03/09 08:37:55;;;;;;;;;3.50;2.00;;;;;12.93;74.35;99682.38;5135198;27;46167;-72
2023/03/09 08:40:21;;;;;;;;;3.25;3.00;;;;;12.91;74.44;99671.72;5135943;27;45992;-73
2023/03/09 08:42:46;;;;;;;;;4.50;1.50;;;;;12.92;75.04;99680.66;5135878;27;45476;-73
2023/03/09 08:45:12;;;;;;;;;2.00;2.00;;;;;12.96;74.26;99684.84;5135465;27;50557;-73
2023/03/09 08:47:38;;;;;;;;;4.25;2.75;;;;;12.69;74.58;99634.75;5134665;27;45677;-72
2023/03/09 08:50:04;;;;;;;;;6.50;2.75;;;;;12.98;74.53;99670.31;5134417;27;46128;-73
2023/03/09 08:52:34;;;;;;;;;3.00;3.00;;;;;13.19;74.35;99678.66;5132885;27;45462;-73
2023/03/09 08:55:00;;;;;;;;;4.00;4.00;;;;;13.24;73.67;99688.13;5135982;27;45868;-73
2023/03/09 08:57:27;;;;;;;;;6.25;3.75;;;;;13.22;73.67;99684.69;5135706;27;45477;-73
2023/03/09 08:59:53;;;;;;;;;6.50;3.75;;;;;13.32;73.35;99674.09;5135931;27;46160;-74
2023/03/09 09:02:20;;;;;;;;;5.00;2.00;;;;;13.23;73.15;99680.16;5135778;27;45421;-73
2023/03/09 09:04:45;;;;;;;;;4.25;3.00;;;;;13.28;73.38;99680.69;5136047;27;45355;-73
2023/03/09 09:07:12;;;;;;;;;4.75;2.00;;;;;13.27;73.39;99686.19;5135742;27;45360;-73
2023/03/09 09:09:38;;;;;;;;;4.00;3.00;;;;;13.30;73.17;99672.50;5135996;27;46662;-72
2023/03/09 09:12:05;;;;;;;;;4.00;2.75;;;;;13.38;72.41;99678.16;5135504;27;45394;-74
2023/03/09 09:14:31;;;;;;;;;7.75;4.00;;;;;13.26;72.18;99650.34;5135496;27;45322;-74
2023/03/09 09:16:56;;;;;;;;;6.75;4.75;;;;;13.50;72.47;99683.50;5135167;27;45443;-74
2023/03/09 09:19:22;;;;;;;;;3.00;3.00;;;;;13.40;71.79;99671.69;5116436;27;47178;-74
2023/03/09 09:21:48;;;;;;;;;5.25;4.00;;;;;13.40;72.38;99674.41;5135592;27;45334;-75
2023/03/09 09:24:13;;;;;;;;;4.00;3.00;;;;;13.52;72.30;99681.56;5113034;27;45399;-73
2023/03/09 09:26:40;;;;;;;;;4.50;3.00;;;;;13.48;71.71;99655.84;5132039;27;45459;-73
2023/03/09 09:29:06;;;;;;;;;4.25;2.25;;;;;13.64;71.81;99680.63;5135376;27;46127;-73
2023/03/09 09:31:33;;;;;;;;;7.75;2.00;;;;;13.61;71.38;99662.00;5134675;27;45396;-72
2023/03/09 09:33:58;;;;;;;;;6.00;5.00;;;;;13.83;71.24;99657.69;5135100;27;45404;-73
2023/03/09 09:36:24;;;;;;;;;3.25;3.00;;;;;13.90;70.27;99656.25;5138122;27;45607;-72
2023/03/09 09:38:51;;;;;;;;;9.75;3.25;;;;;14.04;69.62;99677.56;5139055;27;46128;-73
2023/03/09 09:41:20;;;;;;;;;2.00;2.00;;;;;14.13;69.38;99659.84;5138606;27;45332;-73
2023/03/09 09:43:53;;;;;;;;;8.00;1.75;;;;;14.14;68.60;99662.41;5138587;27;45485;-73
2023/03/09 09:46:20;;;;;;;;;8.00;3.75;;;;;14.20;69.16;99663.81;5138909;27;45308;-74
2023/03/09 09:48:48;;;;;;;;;6.50;5.25;;;;;14.24;69.42;99654.47;5139079;27;45378;-71
2023/03/09 09:51:41;;;;;;;;;5.50;4.25;;;;;14.32;68.63;99662.81;5137694;27;45344;-73
2023/03/09 09:54:23;;;;;;;;;4.75;3.00;;;;;14.42;69.06;99666.56;5138141;27;45602;-73
2023/03/09 09:56:52;;;;;;;;;7.25;4.00;;;;;14.47;67.78;99650.84;5138345;27;45315;-73
2023/03/09 09:59:39;;;;;;;;;4.00;3.00;;;;;14.44;67.42;99659.22;5138209;27;45350;-74
2023/03/09 10:02:07;;;;;;;;;7.00;4.50;;;;;14.46;68.00;99656.41;5138683;27;45455;-74
2023/03/09 10:04:40;;;;;;;;;4.75;2.75;;;;;14.39;67.53;99656.84;5138603;27;45322;-73
2023/03/09 10:07:16;;;;;;;;;5.75;4.00;;;;;14.26;67.74;99639.91;5119190;27;46544;-72
2023/03/09 10:09:45;;;;;;;;;5.25;4.00;;;;;14.40;67.77;99663.09;5138048;27;45585;-72
2023/03/09 10:12:16;;;;;;;;;8.50;5.00;;;;;14.48;67.65;99652.56;5137926;27;45325;-73
2023/03/09 10:14:44;;;;;;;;;7.25;4.00;;;;;14.52;67.87;99651.38;5138245;27;45373;-72
2023/03/09 10:17:30;;;;;;;;;9.50;5.50;;;;;14.49;67.51;99654.28;5119638;27;45430;-72
2023/03/09 10:20:09;;;;;;;;;5.50;4.00;;;;;14.51;66.91;99651.47;5118767;27;47425;-72
2023/03/09 10:22:37;;;;;;;;;8.75;5.00;;;;;14.59;66.51;99643.63;5138159;27;45407;-74
2023/03/09 10:25:11;;;;;;;;;6.25;1.75;;;;;14.60;66.04;99642.66;5138184;27;45411;-73
2023/03/09 10:27:55;;;;;;;;;3.25;3.25;;;;;14.72;65.89;99647.91;5138276;27;45197;-75
2023/03/09 10:30:50;;;;;;;;;3.00;0.25;;;;;14.80;64.27;99651.88;5137136;27;45424;-73
2023/03/09 10:33:39;;;;;;;;;5.25;2.00;;;;;14.90;64.46;99647.41;5137829;27;45569;-72
2023/03/09 10:36:26;;;;;;;;;2.25;2.25;;;;;14.93;64.72;99647.16;5137948;27;45348;-73
2023/03/09 10:38:54;;;;;;;;;5.25;2.00;;;;;14.87;64.20;99639.59;5137578;27;45573;-73
2023/03/09 10:41:20;;;;;;;;;5.25;2.00;;;;;14.84;63.95;99645.22;5137545;27;46026;-72
2023/03/09 10:43:46;;;;;;;;;5.00;2.25;;;;;14.91;63.62;99635.63;5137673;27;45353;-74
2023/03/09 10:46:15;;;;;;;;;9.25;2.00;;;;;15.01;63.67;99636.59;5118170;27;45390;-74
2023/03/09 10:48:42;;;;;;;;;6.75;5.00;;;;;15.05;62.67;99628.16;5137848;27;45488;-74
2023/03/09 10:51:34;;;;;;;;;5.75;3.00;;;;;15.14;62.74;99632.75;5137758;27;46333;-73
2023/03/09 10:54:21;;;;;;;;;8.25;2.00;;;;;15.10;62.13;99638.56;5134859;27;45560;-74
2023/03/09 10:56:47;;;;;;;;;2.25;1.75;;;;;15.07;62.43;99609.09;5118601;27;45407;-74
2023/03/09 10:59:21;;;;;;;;;2.25;2.00;;;;;15.18;61.66;99629.81;5137244;27;45514;-74
2023/03/09 11:01:52;;;;;;;;;3.75;2.00;;;;;15.14;61.79;99626.53;5137098;27;45453;-72
2023/03/09 11:04:26;;;;;;;;;3.75;2.00;;;;;15.29;60.96;99621.72;5137323;27;45352;-73
2023/03/09 11:06:54;;;;;;;;;5.00;2.00;;;;;15.45;60.91;99630.25;5136997;27;45452;-72
2023/03/09 11:09:26;;;;;;;;;8.00;4.00;;;;;15.48;60.81;99620.00;5137187;27;45351;-74
2023/03/09 11:11:52;;;;;;;;;4.75;3.00;;;;;15.49;60.04;99610.94;5137181;27;46401;-73
2023/03/09 11:14:29;;;;;;;;;6.50;4.00;;;;;15.59;59.54;99612.91;5137649;27;45316;-72
2023/03/09 11:17:00;;;;;;;;;5.50;3.75;;;;;15.82;59.94;99604.53;5118947;27;45446;-73
2023/03/09 11:19:27;;;;;;;;;5.75;2.25;;;;;15.92;59.14;99617.25;5137329;27;46070;-73
2023/03/09 11:21:56;;;;;;;;;2.25;2.25;;;;;15.86;59.22;99633.03;5137071;27;46521;-73
2023/03/09 11:24:25;;;;;;;;;5.00;4.00;;;;;15.83;58.97;99616.22;5137391;27;45445;-73
2023/03/09 11:26:59;;;;;;;;;4.50;2.25;;;;;15.72;59.11;99608.19;5136983;27;45244;-73
2023/03/09 11:29:39;;;;;;;;;7.00;4.00;;;;;15.69;59.22;99617.41;5136831;27;45324;-73
2023/03/09 11:32:09;;;;;;;;;6.00;4.25;;;;;15.81;59.40;99616.38;5136682;27;45391;-71
2023/03/09 11:34:36;;;;;;;;;3.50;3.00;;;;;15.82;59.31;99609.13;5136282;27;45490;-73
2023/03/09 11:37:19;;;;;;;;;4.00;2.00;;;;;15.96;58.99;99597.97;5137352;27;45397;-75
2023/03/09 11:39:52;;;;;;;;;8.00;4.50;;;;;16.13;58.19;99594.66;5136782;27;45391;-74
2023/03/09 11:42:36;;;;;;;;;6.50;4.00;;;;;16.49;57.89;99593.28;5136830;27;45278;-74
2023/03/09 11:45:03;;;;;;;;;5.25;2.75;;;;;16.70;56.88;99590.53;5124281;27;45293;-74
2023/03/09 11:47:32;;;;;;;;;3.50;3.25;;;;;16.80;56.33;99598.69;5136943;27;45315;-74
2023/03/09 11:50:01;;;;;;;;;4.50;4.50;;;;;16.94;55.36;99599.16;5136803;27;45554;-74
2023/03/09 11:52:34;;;;;;;;;3.00;3.00;;;;;17.43;54.88;99588.41;5136600;27;45262;-75
2023/03/09 11:55:08;;;;;;;;;3.00;3.00;;;;;17.47;53.45;99574.41;5136743;27;45450;-75
2023/03/09 11:57:35;;;;;;;;;5.50;3.50;;;;;17.73;53.32;99572.00;5118652;27;45385;-74
2023/03/09 12:00:06;;;;;;;;;5.75;2.50;;;;;18.28;51.26;99578.47;5136420;27;45322;-72
2023/03/09 12:02:57;;;;;;;;;5.25;3.00;;;;;19.02;49.98;99574.88;5136324;27;45631;-73
2023/03/09 12:05:27;;;;;;;;;8.00;3.00;;;;;19.45;47.81;99572.28;5117664;27;45449;-73
2023/03/09 12:07:58;;;;;;;;;2.50;2.50;;;;;19.50;47.01;99567.25;5118107;27;45409;-73
2023/03/09 12:10:34;;;;;;;;;4.00;3.00;;;;;19.16;48.23;99564.31;5136211;27;45444;-74
2023/03/09 12:13:22;;;;;;;;;6.25;3.00;;;;;18.90;48.67;99574.22;5136054;27;46229;-73
2023/03/09 12:16:06;;;;;;;;;6.75;2.00;;;;;18.88;48.16;99563.50;5136328;27;45375;-74
2023/03/09 12:18:34;;;;;;;;;4.00;2.25;;;;;18.69;48.53;99565.47;5136175;27;45307;-73
2023/03/09 12:21:02;;;;;;;;;5.00;3.00;;;;;18.45;49.89;99566.00;5117589;27;46072;-73
2023/03/09 12:23:37;;;;;;;;;5.00;5.00;;;;;18.13;50.63;99560.94;5136199;27;45723;-73
2023/03/09 12:26:11;;;;;;;;;7.25;3.25;;;;;17.86;51.84;99553.59;5124206;27;45285;-73
2023/03/09 12:28:38;;;;;;;;;6.50;2.00;;;;;17.66;52.12;99560.91;5116345;27;45374;-73
2023/03/09 12:31:04;;;;;;;;;3.00;3.00;;;;;17.43;52.80;99536.94;5115939;27;45417;-73
2023/03/09 12:33:42;;;;;;;;;4.00;2.50;;;;;17.26;53.18;99541.19;5122597;27;47271;-72
2023/03/09 12:36:26;;;;;;;;;2.50;2.50;;;;;17.17;53.95;99539.34;5120691;27;45355;-73
2023/03/09 12:39:23;;;;;;;;;4.50;3.25;;;;;16.98;54.22;99542.88;5115919;27;45333;-74
2023/03/09 12:41:56;;;;;;;;;7.75;2.50;;;;;16.99;54.73;99531.06;5124211;27;45297;-72
2023/03/09 12:44:43;;;;;;;;;7.75;3.25;;;;;17.03;54.68;99530.63;5135754;27;45623;-73
2023/03/09 12:47:44;;;;;;;;;7.75;4.75;;;;;17.57;53.61;99520.22;5136153;27;45367;-73
2023/03/09 12:50:38;;;;;;;;;7.25;3.50;;;;;17.87;52.83;99530.03;5118525;27;45428;-73
2023/03/09 12:53:15;;;;;;;;;5.00;3.75;;;;;18.12;52.58;99507.69;5134336;27;46183;-73
2023/03/09 12:55:49;;;;;;;;;4.75;2.75;;;;;17.97;52.70;99510.03;5134870;27;46192;-73
2023/03/09 12:58:17;;;;;;;;;3.50;3.50;;;;;18.03;52.96;99520.28;5135622;27;45494;-72
2023/03/09 13:00:51;;;;;;;;;2.50;1.75;;;;;18.00;52.75;99511.59;5136052;27;45434;-73
2023/03/09 13:03:45;;;;;;;;;8.50;3.00;;;;;17.76;53.11;99512.94;5135881;27;45287;-73
2023/03/09 13:06:29;;;;;;;;;6.25;4.00;;;;;17.68;53.52;99504.69;5135664;27;46121;-73
2023/03/09 13:09:17;;;;;;;;;5.75;3.50;;;;;17.75;53.83;99491.41;5135430;27;45215;-72
2023/03/09 13:12:13;;;;;;;;;9.75;4.25;;;;;17.83;53.74;99496.94;5139067;27;45554;-73
2023/03/09 13:14:38;;;;;;;;;2.50;2.50;;;;;18.00;53.36;99489.91;5139113;27;45480;-73
2023/03/09 13:17:34;;;;;;;;;5.25;2.75;;;;;17.92;53.49;99484.38;5139020;27;46104;-73
2023/03/09 13:20:37;;;;;;;;;4.00;2.00;;;;;17.65;54.19;99460.75;5138981;27;45321;-73
2023/03/09 13:23:13;;;;;;;;;8.00;4.00;;;;;17.60;54.35;99474.72;5139162;27;45530;-72
2023/03/09 13:25:53;;;;;;;;;4.25;2.25;;;;;17.42;55.03;99475.59;5139212;27;45367;-73
2023/03/09 13:28:24;;;;;;;;;5.50;4.00;;;;;17.29;55.84;99465.06;5138702;27;45283;-73
2023/03/09 13:30:52;;;;;;;;;5.00;2.75;;;;;17.01;56.33;99464.09;5138825;27;45316;-73
2023/03/09 13:33:22;;;;;;;;;2.50;2.50;;;;;16.94;56.39;99452.09;5138737;27;45278;-74
2023/03/09 13:35:55;;;;;;;;;8.50;4.25;;;;;16.73;57.65;99465.78;5138651;27;45390;-73
2023/03/09 13:38:28;;;;;;;;;4.75;3.00;;;;;16.59;58.66;99439.06;5138582;27;45337;-73
2023/03/09 13:40:57;;;;;;;;;11.00;2.00;;;;;16.51;59.56;99445.16;5138646;27;45470;-75
2023/03/09 13:43:29;;;;;;;;;4.25;4.00;;;;;16.25;59.83;99404.25;5138730;27;45451;-75
2023/03/09 13:46:02;;;;;;;;;6.00;3.00;;;;;16.50;59.84;99435.34;5138692;27;45372;-73
2023/03/09 13:48:29;;;;;;;;;3.00;1.75;;;;;16.48;59.76;99431.09;5138839;27;45472;-74
2023/03/09 13:50:56;;;;;;;;;4.25;3.00;;;;;16.37;60.05;99420.38;5120378;27;45372;-74
2023/03/09 13:53:25;;;;;;;;;4.25;2.50;;;;;16.21;60.69;99407.41;5138804;27;45517;-72
2023/03/09 13:55:54;;;;;;;;;2.25;2.25;;;;;16.25;60.65;99415.06;5138271;27;45335;-71
2023/03/09 13:58:24;;;;;;;;;2.00;2.00;;;;;16.14;61.31;99417.91;5138153;27;46080;-73
2023/03/09 14:00:57;;;;;;;;;1.75;1.00;;;;;16.24;61.06;99409.84;5138293;27;45517;-73
2023/03/09 14:03:24;;;;;;;;;4.00;2.00;;;;;16.29;60.93;99399.44;5138518;27;45383;-71
2023/03/09 14:06:06;;;;;;;;;5.25;2.00;;;;;16.39;60.89;99400.31;5138225;27;45464;-72
2023/03/09 14:08:44;;;;;;;;;3.25;1.50;;;;;16.36;60.81;99387.06;5138439;27;46297;-73
2023/03/09 14:11:22;;;;;;;;;2.00;1.75;;;;;16.43;60.95;99398.16;5138457;27;45364;-71
2023/03/09 14:14:04;;;;;;;;;2.00;2.00;;;;;16.54;60.59;99404.31;5138175;27;45215;-74
2023/03/09 14:16:31;;;;;;;;;8.25;2.00;;;;;16.85;60.00;99387.97;5138325;27;45351;-73
2023/03/09 14:18:58;;;;;;;;;7.75;2.00;;;;;17.36;58.40;99387.63;5138596;27;45355;-72
2023/03/09 14:21:32;;;;;;;;;3.50;1.75;;;;;17.94;56.46;99379.31;5136906;27;45201;-74
2023/03/09 14:24:16;;;;;;;;;2.00;1.00;;;;;18.34;55.06;99389.78;5138511;27;45163;-73
2023/03/09 14:26:42;;;;;;;;;2.50;1.00;;;;;18.15;55.38;99369.06;5137946;27;45561;-74
2023/03/09 14:29:13;;;;;;;;;3.00;1.25;;;;;18.14;55.45;99378.19;5138017;27;45665;-73
2023/03/09 14:31:39;;;;;;;;;1.75;1.75;;;;;18.00;55.97;99379.56;5137685;27;45386;-73
2023/03/09 14:34:24;;;;;;;;;4.00;1.00;;;;;17.90;55.94;99359.78;5138347;27;45460;-72
2023/03/09 14:36:55;;;;;;;;;0.75;0.00;;;;;17.57;57.59;99369.31;5138402;27;45480;-73
2023/03/09 14:39:26;;;;;;;;;1.00;1.00;;;;;17.49;58.57;99366.50;5137826;27;46221;-73
2023/03/09 14:42:15;;;;;;;;;1.25;1.00;;;;;17.58;58.86;99345.78;5138267;27;45502;-74
2023/03/09 14:44:43;;;;;;;;;1.00;1.00;;;;;17.68;58.87;99343.91;5136364;27;45538;-73
2023/03/09 14:47:17;;;;;;;;;4.25;2.50;;;;;17.86;58.05;99320.44;5138098;27;45574;-72
2023/03/09 14:49:51;;;;;;;;;3.25;2.25;;;;;17.91;57.59;99307.25;5137766;27;46291;-72
2023/03/09 14:52:18;;;;;;;;;2.00;2.00;;;;;17.77;58.08;99327.63;5138324;27;45240;-73
2023/03/09 14:54:43;;;;;;;;;5.50;2.75;;;;;17.74;58.90;99322.47;5135349;27;45519;-71
2023/03/09 14:57:11;;;;;;;;;4.00;2.00;;;;;17.46;59.75;99318.00;5133821;27;45532;-73
2023/03/09 14:59:36;;;;;;;;;3.00;1.00;;;;;17.32;60.01;99313.94;5136049;27;46194;-73
2023/03/09 15:02:03;;;;;;;;;3.75;3.00;;;;;16.96;61.16;99291.22;5136504;27;45351;-73
2023/03/09 15:04:30;;;;;;;;;1.00;1.00;;;;;16.99;61.16;99320.72;5137432;27;45374;-73
2023/03/09 15:06:56;;;;;;;;;0.75;0.75;;;;;16.78;61.14;99319.19;5137328;27;45520;-72
2023/03/09 15:09:22;;;;;;;;;1.00;1.00;;;;;16.74;61.65;99305.09;5137627;27;46621;-73
2023/03/09 15:11:48;;;;;;;;;3.00;2.00;;;;;16.79;61.71;99307.34;5118579;27;45613;-74
2023/03/09 15:14:17;;;;;;;;;1.50;1.50;;;;;16.65;62.04;99295.13;5137200;27;45341;-73
2023/03/09 15:16:43;;;;;;;;;0.50;0.25;;;;;16.74;61.89;99296.97;5136601;27;45359;-72
2023/03/09 15:19:16;;;;;;;;;2.00;0.50;;;;;16.64;62.01;99290.72;5137013;27;45857;-74
2023/03/09 15:21:42;;;;;;;;;4.00;1.75;;;;;16.62;61.98;99290.84;5104157;27;45780;-72
2023/03/09 15:24:09;;;;;;;;;0.00;0.00;;;;;16.70;61.93;99282.00;5136708;27;45392;-73
2023/03/09 15:26:35;;;;;;;;;1.00;1.00;;;;;16.70;61.98;99273.91;5137004;27;46366;-74
2023/03/09 15:29:00;;;;;;;;;0.75;0.75;;;;;16.76;62.01;99275.19;5137073;27;45718;-73
2023/03/09 15:31:26;;;;;;;;;2.75;1.75;;;;;16.80;62.29;99276.59;5136968;27;45407;-73
2023/03/09 15:33:51;;;;;;;;;1.50;1.00;;;;;16.81;62.04;99268.31;5136157;27;45217;-73
2023/03/09 15:36:16;;;;;;;;;3.00;1.75;;;;;16.78;62.42;99265.91;5136736;27;50085;-74
2023/03/09 15:38:42;;;;;;;;;3.00;0.00;;;;;16.80;62.52;99257.66;5137247;27;45447;-74
2023/03/09 15:41:07;;;;;;;;;2.00;0.00;;;;;16.76;62.44;99278.72;5137315;27;45246;-73
2023/03/09 15:43:33;;;;;;;;;2.75;2.00;;;;;16.70;63.10;99267.63;5136626;27;45569;-73
2023/03/09 15:46:02;;;;;;;;;4.00;1.50;;;;;16.60;62.99;99235.13;5137242;27;45274;-72
2023/03/09 15:48:28;;;;;;;;;2.75;1.50;;;;;16.46;62.81;99200.44;5118266;27;47138;-74
2023/03/09 15:50:53;;;;;;;;;1.00;1.00;;;;;16.69;62.55;99255.94;5136838;27;45458;-74
2023/03/09 15:53:18;;;;;;;;;1.50;1.00;;;;;16.55;62.98;99240.13;5135664;27;45367;-72
2023/03/09 15:55:44;;;;;;;;;2.00;0.00;;;;;16.53;63.16;99247.53;5136273;27;45649;-73
2023/03/09 15:58:09;;;;;;;;;2.00;2.00;;;;;16.44;63.67;99234.88;5134770;27;46212;-74
2023/03/09 16:00:35;;;;;;;;;2.00;2.00;;;;;16.43;63.79;99225.91;5135696;27;45916;-71
2023/03/09 16:03:03;;;;;;;;;1.00;1.00;;;;;16.32;63.58;99200.88;5137545;27;45298;-74
2023/03/09 16:05:29;;;;;;;;;2.50;2.00;;;;;16.43;63.76;99217.78;5136535;27;45336;-75
2023/03/09 16:07:54;;;;;;;;;1.25;1.25;;;;;16.39;63.39;99210.13;5136748;27;45524;-71
2023/03/09 16:10:20;;;;;;;;;5.00;1.50;;;;;16.50;63.38;99210.81;5136521;27;45406;-72
2023/03/09 16:12:45;;;;;;;;;2.75;2.00;;;;;16.38;62.96;99176.81;5136617;27;45418;-71
2023/03/09 16:15:11;;;;;;;;;1.00;1.00;;;;;16.65;62.75;99205.84;5117520;27;45345;-72
2023/03/09 16:17:36;;;;;;;;;2.00;1.00;;;;;16.69;62.61;99190.16;5136631;27;45461;-73
2023/03/09 16:20:03;;;;;;;;;2.25;2.00;;;;;16.66;62.99;99193.16;5136265;27;45305;-74
2023/03/09 16:22:29;;;;;;;;;2.00;2.00;;;;;16.66;62.78;99180.50;5136316;27;45470;-74
2023/03/09 16:24:54;;;;;;;;;2.25;2.00;;;;;16.66;63.03;99185.91;5135996;27;45331;-73
2023/03/09 16:27:19;;;;;;;;;5.00;2.00;;;;;16.62;62.27;99182.63;5136423;27;45289;-75
2023/03/09 16:29:45;;;;;;;;;2.00;2.00;;;;;16.53;62.74;99163.69;5135849;27;45540;-73
2023/03/09 16:32:10;;;;;;;;;3.00;3.00;;;;;16.53;63.05;99179.91;5136027;27;45375;-72
2023/03/09 16:34:35;;;;;;;;;5.00;2.75;;;;;16.46;63.23;99185.06;5135859;27;45595;-74
2023/03/09 16:37:05;;;;;;;;;4.25;3.00;;;;;16.40;63.65;99169.41;5117641;27;46143;-73
2023/03/09 16:39:31;;;;;;;;;2.00;1.00;;;;;16.34;64.02;99159.16;5136078;27;45379;-72
2023/03/09 16:41:56;;;;;;;;;3.00;1.25;;;;;16.30;64.40;99159.59;5136333;27;45672;-74
2023/03/09 16:44:23;;;;;;;;;5.00;1.00;;;;;16.31;64.21;99159.47;5135909;27;45523;-74
2023/03/09 16:46:51;;;;;;;;;2.00;1.25;;;;;16.18;64.82;99126.47;5139443;27;45402;-73
2023/03/09 16:49:16;;;;;;;;;0.50;0.50;;;;;16.21;65.32;99142.41;5139417;27;45380;-72
2023/03/09 16:51:41;;;;;;;;;3.50;3.00;;;;;16.21;64.66;99120.75;5139831;27;45218;-74
2023/03/09 16:54:07;;;;;;;;;2.00;2.00;;;;;16.21;65.52;99127.03;5139632;27;45217;-74
2023/03/09 16:56:33;;;;;;;;;4.25;2.00;;;;;16.17;65.60;99122.91;5139545;27;46497;-75
2023/03/09 16:58:58;;;;;;;;;3.00;2.00;;;;;15.95;66.06;99088.09;5139031;27;45463;-74
2023/03/09 17:01:23;;;;;;;;;4.50;2.25;;;;;16.10;66.55;99121.78;5139355;27;45354;-74
2023/03/09 17:03:49;;;;;;;;;1.75;1.00;;;;;16.00;67.67;99106.56;5138519;27;45552;-73
2023/03/09 17:06:18;;;;;;;;;3.00;3.00;;;;;16.10;67.64;99113.66;5138941;27;46960;-72
2023/03/09 17:08:46;;;;;;;;;3.00;2.00;;;;;15.86;70.11;99106.03;5139412;27;45440;-73
2023/03/09 17:11:13;;;;;;;;;2.75;1.75;;;;;15.83;70.25;99118.94;5139753;27;45290;-73
2023/03/09 17:13:44;;;;;;;;;2.75;1.25;;;;;15.69;70.13;99106.75;5139022;27;45958;-73
2023/03/09 17:16:09;;;;;;;;;2.50;2.00;;;;;15.52;71.86;99088.50;5129278;27;45329;-72